Time;durP1;ratioP1;P1;durP2;ratioP2;P2;SDS_P1;SDS_P2;PMS_P1;PMS_P2;Temp;Humidity;BMP_temperature;BMP_pressure;BME280_temperature;BME280_humidity;BME280_pressure;Samples;Min_cycle;Max_cycle;Signal;HPM_P1;HPM_P2
2024/01/25 00:01:58;;;;;;;18.27;2.22;;;9.70;99.90;;;;;;4967724;28;20026;-62
2024/01/25 00:04:24;;;;;;;18.10;2.47;;;9.70;99.90;;;;;;4967036;28;20030;-62
2024/01/25 00:06:50;;;;;;;12.57;2.00;;;9.70;99.90;;;;;;4969767;28;20030;-62
2024/01/25 00:09:15;;;;;;;16.92;2.13;;;9.70;99.90;;;;;;4965202;28;20105;-62
2024/01/25 00:11:43;;;;;;;15.85;2.53;;;9.80;99.90;;;;;;4965752;28;20059;-62
2024/01/25 00:14:08;;;;;;;8.73;2.10;;;9.80;99.90;;;;;;4964812;28;20042;-62
2024/01/25 00:16:34;;;;;;;10.10;1.98;;;9.80;99.90;;;;;;4962082;28;20667;-62
2024/01/25 00:19:00;;;;;;;17.20;2.38;;;9.70;99.90;;;;;;4965285;28;20038;-62
2024/01/25 00:21:25;;;;;;;16.92;2.97;;;9.60;99.90;;;;;;4965402;28;20039;-62
2024/01/25 00:23:51;;;;;;;16.70;2.47;;;9.50;99.90;;;;;;4965596;28;20019;-62
2024/01/25 00:26:17;;;;;;;12.77;1.88;;;9.60;99.90;;;;;;4965591;28;20039;-62
2024/01/25 00:28:43;;;;;;;18.08;2.58;;;9.60;99.90;;;;;;4968307;28;20507;-62
2024/01/25 00:31:08;;;;;;;15.15;2.28;;;9.60;99.90;;;;;;4969330;28;20066;-62
2024/01/25 00:33:34;;;;;;;22.77;2.30;;;9.60;99.90;;;;;;4969602;28;20035;-62
2024/01/25 00:36:00;;;;;;;15.90;2.03;;;9.60;99.90;;;;;;4969413;28;20039;-62
2024/01/25 00:38:26;;;;;;;18.48;1.80;;;9.50;99.90;;;;;;4969142;28;20034;-62
2024/01/25 00:40:52;;;;;;;14.98;1.98;;;9.50;99.90;;;;;;4966972;28;20034;-62
2024/01/25 00:43:18;;;;;;;17.50;2.45;;;9.50;99.90;;;;;;4969202;28;20023;-62
2024/01/25 00:45:45;;;;;;;14.20;2.35;;;9.60;99.90;;;;;;4969426;28;20450;-62
2024/01/25 00:48:12;;;;;;;10.93;1.73;;;9.50;99.90;;;;;;4969984;28;20610;-62
2024/01/25 00:50:38;;;;;;;10.07;2.20;;;9.50;99.90;;;;;;4968948;28;20043;-62
2024/01/25 00:53:04;;;;;;;12.45;1.63;;;9.50;99.90;;;;;;4968701;28;20022;-62
2024/01/25 00:55:30;;;;;;;18.65;2.97;;;9.50;99.90;;;;;;4968810;28;20497;-62
2024/01/25 00:57:56;;;;;;;18.05;2.95;;;9.60;99.90;;;;;;4968478;28;20039;-62
2024/01/25 01:00:22;;;;;;;18.30;3.42;;;9.50;99.90;;;;;;4968601;28;20042;-62
2024/01/25 01:02:48;;;;;;;15.88;2.47;;;9.50;99.90;;;;;;4968705;28;20083;-62
2024/01/25 01:05:14;;;;;;;10.57;1.73;;;9.50;99.90;;;;;;4968696;28;20495;-62
2024/01/25 01:07:40;;;;;;;20.58;2.03;;;9.50;99.90;;;;;;4968580;28;20034;-62
2024/01/25 01:10:08;;;;;;;15.73;2.47;;;9.60;99.90;;;;;;4968867;28;20058;-62
2024/01/25 01:12:34;;;;;;;13.65;1.98;;;9.70;99.90;;;;;;4968599;28;20046;-62
2024/01/25 01:15:00;;;;;;;14.57;2.60;;;9.60;99.90;;;;;;4968730;28;20035;-62
2024/01/25 01:17:26;;;;;;;17.25;2.70;;;9.60;99.90;;;;;;4965929;28;20039;-62
2024/01/25 01:19:52;;;;;;;15.73;1.95;;;9.60;99.90;;;;;;4968298;28;20046;-62
2024/01/25 01:22:18;;;;;;;15.43;2.05;;;9.70;99.90;;;;;;4968315;28;20035;-62
2024/01/25 01:24:44;;;;;;;14.23;2.00;;;9.80;99.90;;;;;;4969572;28;20037;-62
2024/01/25 01:27:09;;;;;;;14.65;2.85;;;9.70;99.90;;;;;;4968285;28;20031;-62
2024/01/25 01:29:35;;;;;;;13.40;2.22;;;9.70;99.90;;;;;;4967922;28;20043;-62
2024/01/25 01:32:01;;;;;;;12.13;2.22;;;9.70;99.90;;;;;;4968136;28;20088;-62
2024/01/25 01:34:27;;;;;;;20.02;3.30;;;9.70;99.90;;;;;;4968073;28;20084;-62
2024/01/25 01:36:52;;;;;;;11.00;2.05;;;9.70;99.90;;;;;;4967791;28;20043;-62
2024/01/25 01:39:18;;;;;;;12.80;2.20;;;9.70;99.90;;;;;;4966789;28;20041;-62
2024/01/25 01:41:48;;;;;;;16.30;2.28;;;9.70;99.90;;;;;;4968500;28;20070;-62
2024/01/25 01:44:14;;;;;;;18.67;2.65;;;9.70;99.90;;;;;;4968107;28;20085;-62
2024/01/25 01:46:40;;;;;;;9.07;1.60;;;9.70;99.90;;;;;;4968002;28;20026;-62
2024/01/25 01:49:12;;;;;;;10.80;2.03;;;9.50;99.90;;;;;;4967685;28;20039;-62
2024/01/25 01:51:38;;;;;;;11.32;1.77;;;9.50;99.90;;;;;;4967673;28;20093;-62
2024/01/25 01:54:07;;;;;;;9.57;2.25;;;9.60;99.90;;;;;;4968632;28;20037;-62
2024/01/25 01:56:33;;;;;;;13.95;2.13;;;9.60;99.90;;;;;;4971667;28;20097;-62
2024/01/25 01:59:01;;;;;;;8.05;1.80;;;9.60;99.90;;;;;;4964845;28;20066;-62
2024/01/25 02:01:27;;;;;;;17.13;2.00;;;9.50;99.90;;;;;;4967753;28;20045;-62
2024/01/25 02:03:53;;;;;;;13.25;2.58;;;9.50;99.90;;;;;;4967371;28;20514;-62
2024/01/25 02:06:20;;;;;;;8.90;2.28;;;9.50;99.90;;;;;;4970160;28;20078;-62
2024/01/25 02:08:47;;;;;;;15.77;2.40;;;9.60;99.90;;;;;;4967163;28;20442;-62
2024/01/25 02:11:13;;;;;;;16.95;2.53;;;9.50;99.90;;;;;;4962606;28;20521;-62
2024/01/25 02:13:39;;;;;;;14.27;2.47;;;9.60;99.90;;;;;;4960760;28;20043;-62
2024/01/25 02:16:07;;;;;;;12.18;2.05;;;9.50;99.90;;;;;;4966724;28;20094;-62
2024/01/25 02:18:33;;;;;;;14.25;1.67;;;9.50;99.90;;;;;;4967144;28;20037;-62
2024/01/25 02:20:59;;;;;;;13.35;2.50;;;9.50;99.90;;;;;;4966223;28;20118;-62
2024/01/25 02:23:25;;;;;;;11.82;1.65;;;9.50;99.90;;;;;;4969305;28;20039;-62
2024/01/25 02:25:51;;;;;;;14.13;1.88;;;9.50;99.90;;;;;;4967175;28;20039;-62
2024/01/25 02:28:17;;;;;;;15.52;2.47;;;9.60;99.90;;;;;;4967148;28;20053;-62
2024/01/25 02:30:43;;;;;;;14.57;2.67;;;9.60;99.90;;;;;;4967069;28;20847;-62
2024/01/25 02:33:08;;;;;;;13.15;2.00;;;9.60;99.90;;;;;;4966968;28;20041;-61
2024/01/25 02:35:34;;;;;;;16.70;2.60;;;9.50;99.90;;;;;;4967277;28;20479;-62
2024/01/25 02:38:00;;;;;;;10.80;2.67;;;9.50;99.90;;;;;;4967056;28;20531;-62
2024/01/25 02:40:26;;;;;;;14.43;4.35;;;9.50;99.90;;;;;;4967300;28;20576;-62
2024/01/25 02:42:51;;;;;;;8.77;2.13;;;9.40;99.90;;;;;;4966727;28;20039;-62
2024/01/25 02:45:17;;;;;;;18.90;2.75;;;9.40;99.90;;;;;;4966979;28;20030;-62
2024/01/25 02:47:43;;;;;;;12.35;2.42;;;9.40;99.90;;;;;;4966669;28;20085;-62
2024/01/25 02:50:09;;;;;;;8.52;1.75;;;9.40;99.90;;;;;;4966781;28;20458;-62
2024/01/25 02:52:35;;;;;;;13.52;2.75;;;9.30;99.90;;;;;;4962735;28;20722;-62
2024/01/25 02:55:01;;;;;;;20.45;2.22;;;9.30;99.90;;;;;;4966870;28;20061;-62
2024/01/25 02:57:26;;;;;;;14.18;3.00;;;9.20;99.90;;;;;;4966542;28;20461;-62
2024/01/25 02:59:52;;;;;;;13.18;2.25;;;9.20;99.90;;;;;;4966585;28;20413;-62
2024/01/25 03:02:19;;;;;;;16.33;2.80;;;9.30;99.90;;;;;;4962727;28;20057;-62
2024/01/25 03:04:45;;;;;;;15.73;2.20;;;9.20;99.90;;;;;;4966388;28;20035;-62
2024/01/25 03:07:11;;;;;;;15.23;2.03;;;9.20;99.90;;;;;;4966374;28;20038;-62
2024/01/25 03:09:37;;;;;;;14.23;2.30;;;9.20;99.90;;;;;;4966318;28;20057;-62
2024/01/25 03:12:03;;;;;;;11.48;2.58;;;9.30;99.90;;;;;;4966147;28;20375;-62
2024/01/25 03:14:29;;;;;;;17.73;3.13;;;9.20;99.90;;;;;;4965228;28;20074;-62
2024/01/25 03:16:55;;;;;;;14.25;2.58;;;9.20;99.90;;;;;;4966403;28;20031;-62
2024/01/25 03:19:22;;;;;;;18.63;2.40;;;9.10;99.90;;;;;;4966033;28;20497;-62
2024/01/25 03:21:48;;;;;;;19.85;2.45;;;9.10;99.90;;;;;;4966284;28;20030;-62
2024/01/25 03:24:14;;;;;;;13.60;2.88;;;9.10;99.90;;;;;;4967183;28;20052;-62
2024/01/25 03:26:40;;;;;;;8.77;1.85;;;9.10;99.90;;;;;;4966284;28;20502;-62
2024/01/25 03:29:05;;;;;;;12.45;2.60;;;9.20;99.90;;;;;;4966025;28;20031;-62
2024/01/25 03:31:31;;;;;;;16.27;2.03;;;9.10;99.90;;;;;;4966049;28;20125;-62
2024/01/25 03:33:57;;;;;;;20.92;2.85;;;9.20;99.90;;;;;;4966128;28;20030;-62
2024/01/25 03:36:23;;;;;;;14.30;2.15;;;9.20;99.90;;;;;;4966200;28;20043;-62
2024/01/25 03:38:48;;;;;;;13.48;2.78;;;9.20;99.90;;;;;;4965473;28;20035;-62
2024/01/25 03:41:14;;;;;;;17.00;2.58;;;9.10;99.90;;;;;;4965992;28;20483;-62
2024/01/25 03:43:40;;;;;;;16.00;3.10;;;9.00;99.90;;;;;;4966081;28;20528;-62
2024/01/25 03:46:06;;;;;;;20.58;3.30;;;9.10;99.90;;;;;;4965739;28;20383;-62
2024/01/25 03:48:32;;;;;;;15.05;2.25;;;9.10;99.90;;;;;;4965548;28;20058;-62
2024/01/25 03:50:57;;;;;;;14.75;2.60;;;9.00;99.90;;;;;;4965603;28;20086;-62
2024/01/25 03:53:23;;;;;;;15.70;3.05;;;9.00;99.90;;;;;;4965621;28;20023;-62
2024/01/25 03:55:49;;;;;;;18.45;2.30;;;9.10;99.90;;;;;;4967280;28;20022;-62
2024/01/25 03:58:18;;;;;;;18.85;3.03;;;9.20;99.90;;;;;;4965272;28;20058;-62
2024/01/25 04:00:44;;;;;;;13.57;2.67;;;9.10;99.90;;;;;;4966094;28;20133;-64
2024/01/25 04:03:10;;;;;;;17.95;2.35;;;9.10;99.90;;;;;;4961645;28;20039;-65
2024/01/25 04:05:37;;;;;;;11.27;1.95;;;9.10;99.90;;;;;;4961574;28;20105;-65
2024/01/25 04:08:03;;;;;;;12.90;2.08;;;9.00;99.90;;;;;;4964234;28;20037;-65
2024/01/25 04:10:29;;;;;;;18.30;3.65;;;9.00;99.90;;;;;;4964974;28;20553;-64
2024/01/25 04:12:55;;;;;;;12.73;2.05;;;8.90;99.90;;;;;;4964837;28;20062;-65
2024/01/25 04:15:20;;;;;;;15.50;1.92;;;8.90;99.90;;;;;;4965685;28;20042;-65
2024/01/25 04:17:46;;;;;;;13.70;3.05;;;9.00;99.90;;;;;;4968930;28;20035;-63
2024/01/25 04:20:12;;;;;;;12.80;2.00;;;9.00;99.90;;;;;;4965693;28;20042;-65
2024/01/25 04:22:38;;;;;;;10.07;1.92;;;8.90;99.90;;;;;;4965142;28;20037;-65
2024/01/25 04:25:04;;;;;;;18.42;3.50;;;8.90;99.90;;;;;;4967510;28;20031;-65
2024/01/25 04:27:30;;;;;;;10.98;2.33;;;8.80;99.90;;;;;;4965286;28;20101;-65
2024/01/25 04:29:56;;;;;;;14.27;2.28;;;8.70;99.90;;;;;;4972079;28;20085;-65
2024/01/25 04:32:21;;;;;;;14.65;1.70;;;8.60;99.90;;;;;;4965234;28;20038;-64
2024/01/25 04:34:48;;;;;;;10.35;1.92;;;8.50;99.90;;;;;;4965020;28;20031;-65
2024/01/25 04:37:14;;;;;;;15.45;3.13;;;8.40;99.90;;;;;;4964791;28;20030;-65
2024/01/25 04:39:40;;;;;;;15.20;2.78;;;8.40;99.90;;;;;;4965092;28;20474;-65
2024/01/25 04:42:05;;;;;;;7.25;1.95;;;8.40;99.90;;;;;;4965453;28;20037;-65
2024/01/25 04:44:31;;;;;;;13.02;1.77;;;8.30;99.90;;;;;;4965206;28;20042;-64
2024/01/25 04:46:57;;;;;;;13.15;2.35;;;8.30;99.90;;;;;;4965337;28;20034;-65
2024/01/25 04:49:23;;;;;;;15.93;2.38;;;8.30;99.90;;;;;;4968218;28;20022;-64
2024/01/25 04:51:50;;;;;;;14.20;2.22;;;8.30;99.90;;;;;;4965550;28;20131;-65
2024/01/25 04:54:16;;;;;;;11.80;2.50;;;8.40;99.90;;;;;;4961176;28;20097;-65
2024/01/25 04:56:42;;;;;;;14.40;2.65;;;8.50;99.90;;;;;;4962045;28;20027;-64
2024/01/25 04:59:08;;;;;;;12.77;3.10;;;8.60;99.90;;;;;;4964289;28;20038;-65
2024/01/25 05:01:34;;;;;;;19.45;2.75;;;8.60;99.90;;;;;;4965389;28;20030;-65
2024/01/25 05:04:00;;;;;;;19.52;2.65;;;8.70;99.90;;;;;;4964889;28;20035;-65
2024/01/25 05:06:25;;;;;;;12.48;2.58;;;8.70;99.90;;;;;;4967046;28;20034;-64
2024/01/25 05:08:51;;;;;;;16.55;2.78;;;8.70;99.90;;;;;;4965742;28;20030;-64
2024/01/25 05:11:17;;;;;;;11.85;2.08;;;8.70;99.90;;;;;;4965199;28;20057;-65
2024/01/25 05:13:43;;;;;;;11.82;1.77;;;8.60;99.90;;;;;;4964812;28;20113;-65
2024/01/25 05:16:09;;;;;;;12.73;2.58;;;8.60;99.90;;;;;;4968457;28;20480;-65
2024/01/25 05:18:35;;;;;;;15.18;2.28;;;8.70;99.90;;;;;;4969751;28;20034;-65
2024/01/25 05:21:00;;;;;;;15.40;2.38;;;8.70;99.90;;;;;;4971428;28;20105;-65
2024/01/25 05:23:26;;;;;;;14.73;3.08;;;8.70;99.90;;;;;;4966933;28;20117;-65
2024/01/25 05:25:52;;;;;;;20.52;3.30;;;8.70;99.90;;;;;;4967259;28;20553;-65
2024/01/25 05:28:18;;;;;;;12.80;2.13;;;8.70;99.90;;;;;;4968596;28;20037;-64
2024/01/25 05:30:44;;;;;;;18.35;2.25;;;8.80;99.90;;;;;;4969023;28;20030;-64
2024/01/25 05:33:10;;;;;;;19.45;3.17;;;8.80;99.90;;;;;;4968724;28;20609;-64
2024/01/25 05:35:35;;;;;;;10.20;2.10;;;8.70;99.90;;;;;;4964786;28;20388;-65
2024/01/25 05:38:01;;;;;;;16.23;2.47;;;8.70;99.90;;;;;;4937066;28;20137;-65
2024/01/25 05:40:27;;;;;;;15.98;2.33;;;8.80;99.90;;;;;;4967210;28;20038;-65
2024/01/25 05:42:53;;;;;;;14.40;2.17;;;8.70;99.90;;;;;;4967507;28;20030;-63
2024/01/25 05:45:21;;;;;;;19.05;2.22;;;8.70;99.90;;;;;;4967629;28;20118;-64
2024/01/25 05:47:47;;;;;;;16.83;3.30;;;8.70;99.90;;;;;;4967589;28;20030;-65
2024/01/25 05:50:13;;;;;;;18.85;2.80;;;8.70;99.90;;;;;;4971571;28;20022;-64
2024/01/25 05:52:39;;;;;;;11.48;2.10;;;8.80;99.90;;;;;;4969078;28;20549;-64
2024/01/25 05:55:05;;;;;;;11.70;2.63;;;8.90;99.90;;;;;;4967192;28;20521;-64
2024/01/25 05:57:32;;;;;;;9.85;2.08;;;8.90;99.90;;;;;;4967419;28;20034;-64
2024/01/25 05:59:58;;;;;;;13.13;2.97;;;8.90;99.90;;;;;;4976706;28;20023;-64
2024/01/25 06:02:24;;;;;;;17.77;2.58;;;8.80;99.90;;;;;;4966764;28;20023;-63
2024/01/25 06:04:49;;;;;;;17.02;2.75;;;8.90;99.90;;;;;;4964446;28;20681;-63
2024/01/25 06:07:15;;;;;;;10.98;2.10;;;8.90;99.90;;;;;;4958932;28;20039;-64
2024/01/25 06:09:42;;;;;;;11.13;2.05;;;8.90;99.90;;;;;;4973684;28;20030;-64
2024/01/25 06:12:08;;;;;;;20.33;2.42;;;9.00;99.90;;;;;;4968670;28;20038;-64
2024/01/25 06:14:33;;;;;;;10.73;1.92;;;9.10;99.90;;;;;;4966524;28;20499;-64
2024/01/25 06:16:59;;;;;;;13.25;2.70;;;9.10;99.90;;;;;;4966775;28;20030;-64
2024/01/25 06:19:25;;;;;;;12.25;2.08;;;9.00;99.90;;;;;;4964300;28;20035;-64
2024/01/25 06:21:51;;;;;;;17.08;2.65;;;8.90;99.90;;;;;;4966908;28;20031;-64
2024/01/25 06:24:16;;;;;;;13.27;2.47;;;8.90;99.90;;;;;;4968698;28;20027;-64
2024/01/25 06:26:42;;;;;;;25.20;2.38;;;9.00;99.90;;;;;;4966743;28;20085;-63
2024/01/25 06:29:08;;;;;;;12.85;2.30;;;9.00;99.90;;;;;;4966431;28;20057;-64
2024/01/25 06:31:41;;;;;;;18.98;2.65;;;9.00;99.90;;;;;;4966412;28;20077;-60
2024/01/25 06:34:07;;;;;;;16.10;2.67;;;9.00;99.90;;;;;;4966535;28;20090;-60
2024/01/25 06:36:33;;;;;;;12.63;2.08;;;9.00;99.90;;;;;;4966527;28;20031;-60
2024/01/25 06:38:58;;;;;;;15.48;2.58;;;9.00;99.90;;;;;;4965805;28;20069;-60
2024/01/25 06:41:24;;;;;;;13.10;2.33;;;9.00;99.90;;;;;;4967660;28;20448;-60
2024/01/25 06:43:50;;;;;;;12.40;2.17;;;8.90;99.90;;;;;;4967226;28;20031;-60
2024/01/25 06:46:16;;;;;;;13.32;2.65;;;8.90;99.90;;;;;;4967554;28;20302;-60
2024/01/25 06:48:42;;;;;;;15.80;3.00;;;8.90;99.90;;;;;;4966464;28;20019;-60
2024/01/25 06:51:07;;;;;;;10.80;2.05;;;8.90;99.90;;;;;;4966398;28;20082;-60
2024/01/25 06:53:33;;;;;;;16.65;2.22;;;8.80;99.90;;;;;;4966469;28;20793;-60
2024/01/25 06:55:59;;;;;;;13.30;1.65;;;8.90;99.90;;;;;;4966454;28;20510;-60
2024/01/25 06:58:25;;;;;;;13.18;2.08;;;8.80;99.90;;;;;;4965599;28;20487;-60
2024/01/25 07:00:52;;;;;;;10.90;1.40;;;8.70;99.90;;;;;;4965432;28;20031;-60
2024/01/25 07:03:18;;;;;;;20.83;2.25;;;8.70;99.90;;;;;;4966370;28;20031;-60
2024/01/25 07:05:44;;;;;;;14.88;2.22;;;8.70;99.90;;;;;;4966113;28;20034;-60
2024/01/25 07:08:13;;;;;;;21.13;2.80;;;8.70;99.90;;;;;;4966604;28;20032;-61
2024/01/25 07:10:42;;;;;;;13.98;2.67;;;8.60;99.90;;;;;;4969649;28;20114;-60
2024/01/25 07:13:08;;;;;;;13.70;2.65;;;8.50;99.90;;;;;;4965877;28;20066;-60
2024/01/25 07:15:34;;;;;;;18.55;2.90;;;8.40;99.90;;;;;;4967937;28;20055;-61
2024/01/25 07:18:00;;;;;;;19.73;2.75;;;8.40;99.90;;;;;;4965787;28;20986;-63
2024/01/25 07:20:26;;;;;;;15.63;2.47;;;8.40;99.90;;;;;;4965523;28;20046;-61
2024/01/25 07:22:51;;;;;;;19.08;3.13;;;8.40;99.90;;;;;;4964933;28;20102;-60
2024/01/25 07:25:17;;;;;;;9.27;1.58;;;8.40;99.90;;;;;;4965664;28;20046;-60
2024/01/25 07:27:46;;;;;;;15.20;1.77;;;8.40;99.90;;;;;;4962451;28;20023;-60
2024/01/25 07:30:13;;;;;;;19.63;3.47;;;8.30;99.90;;;;;;4964756;28;20041;-60
2024/01/25 07:32:42;;;;;;;15.52;2.03;;;8.40;99.90;;;;;;4965828;28;20030;-60
2024/01/25 07:35:09;;;;;;;14.80;1.98;;;8.40;99.90;;;;;;4966045;28;20057;-60
2024/01/25 07:37:35;;;;;;;14.63;2.42;;;8.30;99.90;;;;;;4965201;28;20125;-65
2024/01/25 07:40:03;;;;;;;18.58;2.20;;;8.30;99.90;;;;;;4966784;28;20738;-65
2024/01/25 07:42:29;;;;;;;11.38;1.63;;;8.40;99.90;;;;;;4976286;28;20026;-65
2024/01/25 07:44:55;;;;;;;17.15;1.95;;;8.50;99.90;;;;;;4966921;28;20022;-61
2024/01/25 07:47:20;;;;;;;9.82;2.10;;;8.50;99.90;;;;;;4969021;28;20772;-60
2024/01/25 07:49:46;;;;;;;14.75;2.40;;;8.60;99.90;;;;;;4965304;28;20061;-61
2024/01/25 07:52:12;;;;;;;16.85;2.08;;;8.80;99.90;;;;;;4965130;28;20061;-60
2024/01/25 07:54:38;;;;;;;13.48;2.33;;;8.80;99.90;;;;;;4965620;28;20513;-60
2024/01/25 07:57:04;;;;;;;11.45;2.40;;;8.90;99.90;;;;;;4965473;28;20034;-60
2024/01/25 07:59:29;;;;;;;14.98;1.67;;;9.00;99.90;;;;;;4947582;28;20121;-60
2024/01/25 08:01:55;;;;;;;16.80;2.20;;;9.10;99.90;;;;;;4965502;28;20564;-61
2024/01/25 08:04:21;;;;;;;19.23;2.25;;;9.00;99.90;;;;;;4965073;28;20494;-61
2024/01/25 08:06:46;;;;;;;13.57;2.00;;;8.90;99.90;;;;;;4965046;28;20573;-61
2024/01/25 08:09:12;;;;;;;11.05;2.17;;;9.00;99.90;;;;;;4964661;28;20494;-61
2024/01/25 08:11:38;;;;;;;18.88;2.15;;;9.00;99.90;;;;;;4959645;28;20035;-60
2024/01/25 08:14:05;;;;;;;9.25;2.80;;;9.10;99.90;;;;;;4963466;28;20092;-61
2024/01/25 08:16:31;;;;;;;11.68;1.50;;;9.10;99.90;;;;;;4965264;28;20035;-60
2024/01/25 08:18:58;;;;;;;18.05;1.98;;;9.20;99.90;;;;;;4965157;28;20031;-61
2024/01/25 08:21:24;;;;;;;17.23;2.22;;;9.20;99.90;;;;;;4965193;28;20019;-61
2024/01/25 08:23:50;;;;;;;16.83;2.22;;;9.30;99.90;;;;;;4965033;28;20027;-60
2024/01/25 08:26:16;;;;;;;9.85;1.90;;;9.40;99.90;;;;;;4965040;28;20031;-61
2024/01/25 08:28:46;;;;;;;8.13;1.88;;;9.40;99.90;;;;;;4964790;28;20031;-60
2024/01/25 08:31:12;;;;;;;15.00;2.72;;;9.60;99.90;;;;;;4965370;28;20482;-61
2024/01/25 08:33:44;;;;;;;15.10;2.15;;;9.70;99.90;;;;;;4965530;28;20058;-65
2024/01/25 08:36:10;;;;;;;13.23;1.85;;;9.70;99.90;;;;;;4963101;28;20078;-65
2024/01/25 08:38:36;;;;;;;16.63;2.63;;;9.70;99.90;;;;;;4970574;28;20031;-65
2024/01/25 08:41:02;;;;;;;11.30;2.45;;;9.70;99.90;;;;;;4965321;28;20037;-65
2024/01/25 08:43:28;;;;;;;14.23;2.60;;;9.80;99.90;;;;;;4965215;28;20034;-64
2024/01/25 08:45:54;;;;;;;14.15;2.45;;;9.80;99.90;;;;;;4968241;28;20023;-63
2024/01/25 08:48:20;;;;;;;9.02;1.70;;;9.80;99.90;;;;;;4967303;28;20701;-65
2024/01/25 08:50:46;;;;;;;13.57;2.33;;;9.80;99.90;;;;;;4968766;28;20542;-64
2024/01/25 08:53:12;;;;;;;11.60;2.42;;;9.80;99.90;;;;;;4968722;28;20034;-65
2024/01/25 08:55:38;;;;;;;9.52;1.77;;;9.90;99.90;;;;;;4969236;28;20112;-64
2024/01/25 08:58:04;;;;;;;8.88;1.80;;;9.90;99.90;;;;;;4966122;28;20023;-64
2024/01/25 09:00:30;;;;;;;13.75;1.65;;;10.00;99.90;;;;;;4968576;28;20038;-65
2024/01/25 09:02:55;;;;;;;11.75;1.67;;;10.00;99.90;;;;;;4969245;28;20122;-64
2024/01/25 09:05:21;;;;;;;10.75;2.10;;;10.10;99.90;;;;;;4968590;28;20027;-65
2024/01/25 09:07:47;;;;;;;10.57;2.30;;;10.10;99.90;;;;;;4969695;28;20043;-65
2024/01/25 09:10:13;;;;;;;16.25;2.20;;;10.00;99.90;;;;;;4970446;28;20042;-65
2024/01/25 09:12:39;;;;;;;13.00;2.47;;;10.10;99.90;;;;;;4975375;28;20046;-65
2024/01/25 09:15:05;;;;;;;14.18;2.38;;;10.10;99.90;;;;;;4969131;28;20120;-65
2024/01/25 09:17:31;;;;;;;8.85;1.77;;;10.20;99.90;;;;;;4966740;28;20485;-65
2024/01/25 09:19:59;;;;;;;7.28;1.90;;;10.30;99.90;;;;;;4967905;28;20034;-65
2024/01/25 09:22:25;;;;;;;12.27;1.85;;;10.30;99.90;;;;;;4968421;28;20027;-65
2024/01/25 09:24:51;;;;;;;15.68;1.80;;;10.30;99.90;;;;;;4978177;28;20061;-65
2024/01/25 09:27:17;;;;;;;11.88;2.47;;;10.40;99.90;;;;;;4967946;28;20023;-65
2024/01/25 09:29:43;;;;;;;19.30;3.10;;;10.60;99.90;;;;;;4968374;28;20585;-65
2024/01/25 09:32:09;;;;;;;12.73;2.75;;;10.80;99.90;;;;;;4969581;28;20035;-65
2024/01/25 09:34:36;;;;;;;18.17;2.38;;;10.90;99.90;;;;;;4973939;28;20502;-65
2024/01/25 09:37:02;;;;;;;15.55;2.38;;;10.90;99.90;;;;;;4969803;28;20092;-65
2024/01/25 09:39:29;;;;;;;13.38;2.70;;;11.00;99.90;;;;;;4972262;28;20030;-65
2024/01/25 09:41:55;;;;;;;10.02;2.13;;;11.10;99.90;;;;;;4968398;28;20034;-65
2024/01/25 09:44:21;;;;;;;15.93;2.17;;;11.10;99.90;;;;;;4965197;28;20019;-65
2024/01/25 09:46:47;;;;;;;10.02;1.85;;;11.00;99.90;;;;;;4975248;28;20037;-67
2024/01/25 09:49:13;;;;;;;16.63;2.70;;;11.00;99.90;;;;;;4972412;28;20034;-65
2024/01/25 09:51:41;;;;;;;9.90;1.90;;;10.90;99.90;;;;;;4973509;28;20030;-65
2024/01/25 09:54:07;;;;;;;13.07;2.30;;;11.00;99.90;;;;;;4969793;28;20043;-65
2024/01/25 09:56:34;;;;;;;17.10;3.05;;;11.60;99.90;;;;;;4967884;28;20138;-65
2024/01/25 09:59:01;;;;;;;16.50;1.98;;;12.20;98.70;;;;;;4967531;28;20043;-65
2024/01/25 10:01:27;;;;;;;6.60;1.45;;;12.70;97.20;;;;;;4966836;28;20026;-61
2024/01/25 10:03:56;;;;;;;10.95;1.75;;;12.80;96.20;;;;;;4967283;28;20037;-61
2024/01/25 10:06:22;;;;;;;15.15;2.10;;;12.90;96.70;;;;;;4963371;28;20178;-61
2024/01/25 10:08:48;;;;;;;12.18;1.80;;;13.30;96.00;;;;;;4965458;28;20027;-61
2024/01/25 10:11:14;;;;;;;11.07;2.47;;;13.40;94.70;;;;;;4967388;28;20031;-61
2024/01/25 10:13:50;;;;;;;11.75;2.13;;;13.50;95.00;;;;;;4967169;28;20114;-66
2024/01/25 10:16:17;;;;;;;;;;;14.10;93.30;;;;;;4967779;28;20038;-65
2024/01/25 10:18:43;;;;;;;;;;;13.90;93.00;;;;;;4965865;28;20678;-61
2024/01/25 10:21:10;;;;;;;12.70;2.17;;;13.40;93.40;;;;;;4967128;28;20309;-61
2024/01/25 10:23:37;;;;;;;11.48;1.67;;;13.10;93.90;;;;;;4966967;28;20042;-63
2024/01/25 10:26:03;;;;;;;6.72;1.67;;;12.90;94.30;;;;;;4971091;28;20122;-65
2024/01/25 10:28:30;;;;;;;9.52;2.38;;;12.80;94.90;;;;;;4967488;28;20660;-64
2024/01/25 10:30:57;;;;;;;10.65;1.88;;;12.50;94.90;;;;;;4968460;28;20065;-64
2024/01/25 10:33:27;;;;;;;12.45;2.42;;;12.20;95.90;;;;;;4967039;28;20037;-61
2024/01/25 10:36:01;;;;;;;16.45;3.03;;;12.10;96.00;;;;;;4961439;28;20041;-64
2024/01/25 10:38:35;;;;;;;11.80;2.63;;;12.00;96.70;;;;;;4966915;28;20034;-65
2024/01/25 10:41:03;;;;;;;14.75;4.43;;;11.90;96.90;;;;;;4965491;28;20065;-65
2024/01/25 10:43:32;;;;;;;15.32;2.75;;;11.90;97.00;;;;;;4967107;28;20054;-61
2024/01/25 10:45:59;;;;;;;13.57;2.40;;;12.00;96.90;;;;;;4966753;28;20149;-61
2024/01/25 10:48:26;;;;;;;8.77;2.17;;;12.00;96.80;;;;;;4974340;28;20473;-64
2024/01/25 10:50:53;;;;;;;14.52;2.50;;;12.30;96.60;;;;;;4968847;28;20804;-65
2024/01/25 10:53:19;;;;;;;11.98;2.00;;;12.20;95.90;;;;;;4965067;28;20570;-64
2024/01/25 10:55:46;;;;;;;10.30;1.60;;;12.20;96.00;;;;;;4962821;28;20154;-63
2024/01/25 10:58:14;;;;;;;13.07;2.35;;;12.20;96.40;;;;;;4966803;28;20441;-64
2024/01/25 11:00:39;;;;;;;13.68;2.53;;;12.10;96.60;;;;;;4965908;28;20041;-62
2024/01/25 11:03:06;;;;;;;19.35;2.53;;;12.70;96.10;;;;;;4966586;28;20125;-62
2024/01/25 11:05:32;;;;;;;15.40;2.47;;;13.00;94.90;;;;;;4967662;28;20057;-62
2024/01/25 11:07:58;;;;;;;8.57;1.58;;;13.20;94.30;;;;;;4965625;28;20077;-62
2024/01/25 11:10:25;;;;;;;15.98;2.58;;;13.60;94.10;;;;;;4966352;28;20031;-62
2024/01/25 11:13:01;;;;;;;8.52;2.00;;;14.10;92.70;;;;;;4965750;28;20034;-62
2024/01/25 11:15:30;;;;;;;13.90;1.75;;;14.90;91.20;;;;;;4966162;28;20541;-64
2024/01/25 11:17:57;;;;;;;10.68;1.98;;;15.40;88.80;;;;;;4965725;28;20465;-64
2024/01/25 11:20:24;;;;;;;8.57;2.42;;;15.20;88.50;;;;;;4965594;28;20042;-61
2024/01/25 11:23:02;;;;;;;13.55;2.17;;;15.20;88.00;;;;;;4967148;28;20849;-65
2024/01/25 11:25:32;;;;;;;8.80;1.77;;;14.60;88.00;;;;;;4967135;28;20045;-61
2024/01/25 11:28:00;;;;;;;13.07;2.60;;;13.50;90.50;;;;;;4965567;28;20023;-65
2024/01/25 11:30:28;;;;;;;10.02;1.73;;;12.90;91.90;;;;;;4965952;28;20042;-66
2024/01/25 11:32:54;;;;;;;8.95;1.65;;;12.50;92.80;;;;;;4966168;28;20138;-65
2024/01/25 11:35:20;;;;;;;14.55;2.30;;;12.20;93.80;;;;;;4968053;28;20704;-66
2024/01/25 11:37:47;;;;;;;8.82;2.00;;;12.00;94.60;;;;;;4965757;28;20601;-67
2024/01/25 11:40:14;;;;;;;14.25;1.80;;;11.90;94.70;;;;;;4967501;28;20162;-66
2024/01/25 11:42:48;;;;;;;6.90;1.40;;;11.70;95.30;;;;;;4969163;28;20047;-66
2024/01/25 11:45:15;;;;;;;10.32;2.20;;;11.70;95.60;;;;;;4966002;28;20074;-66
2024/01/25 11:47:42;;;;;;;12.32;1.88;;;11.80;95.60;;;;;;4966119;28;20101;-62
2024/01/25 11:50:10;;;;;;;13.77;2.17;;;11.90;95.70;;;;;;4965008;28;20042;-62
2024/01/25 11:52:36;;;;;;;20.33;4.03;;;12.00;95.90;;;;;;4965556;28;20042;-65
2024/01/25 11:55:04;;;;;;;9.98;2.50;;;12.20;95.80;;;;;;4963736;28;20030;-66
2024/01/25 11:57:32;;;;;;;7.07;2.40;;;12.30;95.20;;;;;;4965139;28;20034;-65
2024/01/25 11:59:58;;;;;;;14.98;1.98;;;12.30;95.50;;;;;;4965444;28;20022;-61
2024/01/25 12:02:24;;;;;;;18.98;2.03;;;12.30;95.30;;;;;;4969697;28;20026;-62
2024/01/25 12:04:53;;;;;;;13.23;3.50;;;12.40;95.50;;;;;;4966103;28;20089;-62
2024/01/25 12:07:20;;;;;;;9.95;2.65;;;12.30;95.60;;;;;;4967269;28;20031;-65
2024/01/25 12:09:59;;;;;;;10.10;2.55;;;12.50;95.40;;;;;;4965023;28;20049;-66
2024/01/25 12:12:25;;;;;;;12.52;2.38;;;12.60;94.80;;;;;;4973600;28;20489;-65
2024/01/25 12:14:52;;;;;;;11.68;2.20;;;12.70;95.00;;;;;;4961393;28;20089;-66
2024/01/25 12:17:18;;;;;;;10.43;2.25;;;12.80;94.20;;;;;;4963365;28;20034;-66
2024/01/25 12:19:44;;;;;;;14.48;2.67;;;12.80;94.00;;;;;;4966099;28;20108;-61
2024/01/25 12:22:09;;;;;;;7.38;2.88;;;12.80;93.90;;;;;;4965629;28;20038;-61
2024/01/25 12:24:35;;;;;;;10.18;2.28;;;12.70;94.00;;;;;;4968358;28;20467;-64
2024/01/25 12:27:01;;;;;;;14.02;1.80;;;12.70;93.80;;;;;;4969647;28;20482;-61
2024/01/25 12:29:27;;;;;;;12.35;1.90;;;12.70;94.00;;;;;;4966662;28;20046;-61
2024/01/25 12:31:53;;;;;;;8.55;2.08;;;12.80;93.90;;;;;;4968875;28;20039;-61
2024/01/25 12:34:19;;;;;;;17.20;2.20;;;12.80;94.40;;;;;;4968854;28;20045;-61
2024/01/25 12:36:44;;;;;;;9.07;1.73;;;12.80;94.10;;;;;;4969151;28;20038;-62
2024/01/25 12:39:11;;;;;;;9.45;1.52;;;12.80;94.10;;;;;;4968562;28;20054;-62
2024/01/25 12:41:37;;;;;;;7.50;1.50;;;12.80;94.10;;;;;;4968574;28;20543;-62